FR-0222 weather

Crs Alpes Heliport
Albertville, Rhône Alpes, France

Public forecast

Using degrees Celsius for public forecast. Weather courtesy of forecast.io.

METAR (pilot weather report)

Closest report is Annecy-Haute-Savoie-Mont Blanc Airport, 19.9 nm (36.9 km) NW. Retrieved 2019/09/21 09:30 UTC (23 minutes ago):

LFLP 210930Z AUTO VRB03KT CAVOK 19/11 Q1020 NOSIG

TAF (pilot weather forecast)

Closest forecast is Annecy-Haute-Savoie-Mont Blanc Airport, 19.9 nm (36.9 km) NW. Retrieved 2019/09/21 09:00 UTC (53 minutes ago):

TAF LFLP 210800Z 2109/2209 VRB02KT CAVOK